Terminal Aerodrome Forecast
Issued by NWS

Home | Current Version | Previous Version | Text Only | Print | Product List | Glossary On
Versions: 1 2 3 4 5 6 7 8 9 10 11 12 13 14 15 16 17
000
FTUS46 KOTX 201130
TAFPUW
TAF
KPUW 201130Z 2012/2112 10010KT 6SM -RA BR BKN020 OVC035
     FM201700 10012KT P6SM -RA OVC030
     FM202100 20019G30KT P6SM -SHRA BKN050
     FM210300 22017G23KT P6SM SCT070
     FM210600 23007KT P6SM BKN200=

USA.gov is the U.S. government's official web portal to all federal, state and local government web resources and services.